Time;durP1;ratioP1;P1;durP2;ratioP2;P2;SDS_P1;SDS_P2;PMS_P1;PMS_P2;Temp;Humidity;BMP_temperature;BMP_pressure;BME280_temperature;BME280_humidity;BME280_pressure;Samples;Min_cycle;Max_cycle;Signal;HPM_P1;HPM_P2
2023/09/18 00:01:56;;;;;;;21.58;12.40;;;;;;;22.55;81.71;100655.22;5030469;28;20064;-73
2023/09/18 00:04:24;;;;;;;22.08;12.77;;;;;;;22.59;82.29;100654.16;5030317;28;20037;-76
2023/09/18 00:06:52;;;;;;;21.42;12.70;;;;;;;22.69;81.17;100652.00;5030185;28;20037;-74
2023/09/18 00:09:18;;;;;;;20.23;12.27;;;;;;;22.69;81.35;100644.03;5029677;28;20030;-75
2023/09/18 00:11:47;;;;;;;22.83;12.48;;;;;;;22.46;82.64;100643.13;5030297;28;20041;-74
2023/09/18 00:14:12;;;;;;;22.00;12.20;;;;;;;22.68;81.89;100640.53;5030527;28;20036;-73
2023/09/18 00:16:38;;;;;;;21.85;13.13;;;;;;;22.65;81.56;100638.84;5030011;28;20038;-74
2023/09/18 00:19:04;;;;;;;21.73;12.90;;;;;;;22.49;82.65;100642.16;5030633;28;20043;-74
2023/09/18 00:21:34;;;;;;;21.95;12.75;;;;;;;22.50;82.15;100631.50;5029586;28;20045;-74
2023/09/18 00:24:05;;;;;;;21.63;12.65;;;;;;;22.52;82.78;100636.72;5030409;28;20041;-74
2023/09/18 00:26:34;;;;;;;19.48;11.93;;;;;;;22.73;81.20;100630.59;5029659;28;20110;-74
2023/09/18 00:29:05;;;;;;;19.30;12.02;;;;;;;22.75;81.18;100623.41;5030159;28;20034;-74
2023/09/18 00:31:30;;;;;;;18.85;11.60;;;;;;;22.82;81.17;100618.69;5029574;28;20392;-74
2023/09/18 00:33:55;;;;;;;17.65;11.48;;;;;;;22.79;80.91;100613.53;5030131;28;20044;-74
2023/09/18 00:36:21;;;;;;;19.27;12.63;;;;;;;22.66;81.68;100603.38;5029537;28;20414;-76
2023/09/18 00:38:47;;;;;;;19.88;12.20;;;;;;;22.66;81.92;100599.84;5029693;28;20491;-74
2023/09/18 00:41:12;;;;;;;18.15;12.35;;;;;;;22.62;81.91;100593.81;5029957;28;20040;-74
2023/09/18 00:43:38;;;;;;;19.23;12.57;;;;;;;22.75;81.20;100583.53;5029554;28;20041;-76
2023/09/18 00:46:03;;;;;;;18.85;11.88;;;;;;;22.78;80.44;100582.56;5029753;28;20041;-74
2023/09/18 00:48:34;;;;;;;18.65;11.73;;;;;;;22.74;80.64;100568.53;5029518;28;20049;-74
2023/09/18 00:51:01;;;;;;;19.52;12.50;;;;;;;22.57;81.92;100558.56;5029574;28;20038;-74
2023/09/18 00:53:32;;;;;;;20.63;12.43;;;;;;;22.70;80.67;100552.72;5029290;28;20033;-74
2023/09/18 00:56:00;;;;;;;18.27;11.98;;;;;;;22.67;80.83;100538.66;5029810;28;20025;-74
2023/09/18 00:58:26;;;;;;;19.52;13.13;;;;;;;22.52;81.89;100533.09;5028962;28;20037;-74
2023/09/18 01:00:55;;;;;;;21.02;12.73;;;;;;;22.49;82.43;100510.22;5029266;28;20043;-74
2023/09/18 01:03:25;;;;;;;21.40;12.90;;;;;;;22.37;83.15;100504.53;5029651;28;20030;-74
2023/09/18 01:05:50;;;;;;;19.88;12.80;;;;;;;22.55;82.72;100499.31;5029782;28;20112;-76
2023/09/18 01:08:19;;;;;;;21.85;12.98;;;;;;;22.32;83.89;100514.47;5029696;28;20121;-74
2023/09/18 01:10:57;;;;;;;19.92;12.57;;;;;;;22.78;81.82;100521.44;5028774;28;20121;-73
2023/09/18 01:13:30;;;;;;;18.85;12.23;;;;;;;22.98;80.26;100510.81;5028827;28;20124;-75
2023/09/18 01:16:10;;;;;;;19.25;12.23;;;;;;;22.89;80.33;100504.09;5029903;28;20031;-75
2023/09/18 01:18:38;;;;;;;19.92;12.13;;;;;;;22.84;80.56;100497.25;5028894;28;20513;-74
2023/09/18 01:21:03;;;;;;;18.75;12.13;;;;;;;22.72;81.03;100506.63;5029658;28;20040;-73
2023/09/18 01:23:29;;;;;;;20.73;12.63;;;;;;;22.62;81.88;100505.25;5034117;28;20120;-74
2023/09/18 01:25:57;;;;;;;21.75;12.95;;;;;;;22.54;82.47;100518.84;5029525;28;20079;-74
2023/09/18 01:28:22;;;;;;;23.52;13.35;;;;;;;22.59;81.59;100526.63;5028929;28;20056;-74
2023/09/18 01:30:57;;;;;;;19.33;12.50;;;;;;;22.64;81.67;100514.00;5027423;28;20042;-74
2023/09/18 01:33:23;;;;;;;22.42;12.82;;;;;;;22.31;83.22;100529.56;5029286;28;20052;-74
2023/09/18 01:35:56;;;;;;;20.33;13.05;;;;;;;22.49;82.56;100526.16;5029773;28;20029;-74
2023/09/18 01:38:25;;;;;;;20.15;13.00;;;;;;;22.30;83.71;100525.16;5028870;28;20115;-76
2023/09/18 01:40:54;;;;;;;20.13;12.55;;;;;;;22.22;84.24;100509.53;5029459;28;20029;-74
2023/09/18 01:43:20;;;;;;;20.92;13.05;;;;;;;22.28;84.17;100516.38;5028976;28;20400;-74
2023/09/18 01:45:46;;;;;;;19.23;12.18;;;;;;;22.63;82.49;100514.91;5031743;28;20044;-74
2023/09/18 01:48:17;;;;;;;19.52;12.63;;;;;;;22.61;82.31;100503.50;5033159;28;20431;-74
2023/09/18 01:50:48;;;;;;;21.40;12.50;;;;;;;22.63;82.43;100499.84;5032334;28;20044;-73
2023/09/18 01:53:14;;;;;;;18.95;11.88;;;;;;;22.45;83.60;100513.91;5033164;28;20052;-74
2023/09/18 01:55:51;;;;;;;18.98;11.82;;;;;;;22.57;83.00;100520.50;5024998;28;20231;-74
2023/09/18 01:58:20;;;;;;;19.58;11.68;;;;;;;22.71;82.21;100503.97;5044492;28;20509;-74
2023/09/18 02:00:51;;;;;;;20.00;12.27;;;;;;;22.57;83.11;100505.41;5032261;28;20124;-74
2023/09/18 02:03:22;;;;;;;19.27;11.35;;;;;;;22.81;82.28;100506.19;5032902;28;20072;-74
2023/09/18 02:05:57;;;;;;;16.90;11.23;;;;;;;22.84;81.29;100513.19;5032725;28;20057;-74
2023/09/18 02:08:22;;;;;;;17.58;11.60;;;;;;;22.83;81.86;100524.75;5032538;28;20426;-75
2023/09/18 02:10:50;;;;;;;18.40;11.48;;;;;;;22.79;82.20;100520.50;5032440;28;20040;-73
2023/09/18 02:13:22;;;;;;;18.58;11.95;;;;;;;22.83;82.08;100522.09;5032793;28;20044;-75
2023/09/18 02:15:57;;;;;;;20.15;11.73;;;;;;;22.88;82.34;100520.09;5032537;28;20078;-74
2023/09/18 02:18:22;;;;;;;18.80;12.07;;;;;;;22.90;82.00;100519.13;5032183;28;20073;-74
2023/09/18 02:20:48;;;;;;;19.75;11.90;;;;;;;22.78;82.03;100516.13;5032358;28;20452;-74
2023/09/18 02:23:20;;;;;;;18.85;11.30;;;;;;;22.87;81.99;100513.09;5032672;28;20033;-74
2023/09/18 02:25:47;;;;;;;19.67;12.38;;;;;;;22.81;81.91;100510.69;5032519;28;20066;-73
2023/09/18 02:28:18;;;;;;;20.25;12.23;;;;;;;22.89;81.67;100501.44;5046973;28;20037;-74
2023/09/18 02:30:53;;;;;;;15.98;10.82;;;;;;;22.91;81.34;100496.06;5045634;28;20037;-73
2023/09/18 02:33:18;;;;;;;17.35;11.68;;;;;;;22.83;81.98;100498.16;5033734;28;20711;-76
2023/09/18 02:35:43;;;;;;;17.58;11.70;;;;;;;22.87;81.66;100475.88;5032678;28;20117;-73
2023/09/18 02:38:12;;;;;;;17.20;11.10;;;;;;;22.95;81.48;100471.94;5031984;28;20037;-74
2023/09/18 02:40:40;;;;;;;17.33;11.02;;;;;;;22.99;80.95;100462.03;5031586;28;20687;-74
2023/09/18 02:43:06;;;;;;;18.45;10.52;;;;;;;22.94;81.10;100453.38;5032598;28;20060;-74
2023/09/18 02:45:37;;;;;;;16.60;10.75;;;;;;;22.90;81.36;100451.78;5031862;28;20478;-74
2023/09/18 02:48:03;;;;;;;16.98;10.57;;;;;;;22.88;81.37;100446.53;5030567;28;20052;-74
2023/09/18 02:50:28;;;;;;;19.85;11.57;;;;;;;22.84;81.21;100430.78;5029665;28;20462;-74
2023/09/18 02:52:56;;;;;;;18.33;11.05;;;;;;;22.84;81.21;100422.81;5032094;28;20021;-74
2023/09/18 02:55:22;;;;;;;17.73;11.07;;;;;;;22.80;81.79;100408.81;5030835;28;20042;-74
2023/09/18 02:57:47;;;;;;;19.65;10.98;;;;;;;22.78;81.69;100399.19;5031930;28;20506;-74
2023/09/18 03:00:21;;;;;;;19.52;11.43;;;;;;;22.80;81.82;100392.00;5031569;28;20034;-76
2023/09/18 03:02:46;;;;;;;18.08;11.30;;;;;;;22.82;81.73;100384.81;5031542;28;20037;-73
2023/09/18 03:05:12;;;;;;;17.35;10.63;;;;;;;22.81;81.47;100378.63;5031520;28;20026;-73
2023/09/18 03:07:37;;;;;;;16.38;10.80;;;;;;;22.73;82.30;100374.59;5030975;28;20528;-76
2023/09/18 03:10:06;;;;;;;16.08;10.23;;;;;;;22.84;81.35;100367.00;5031068;28;20038;-73
2023/09/18 03:12:41;;;;;;;17.90;10.95;;;;;;;22.74;81.73;100373.69;5031205;28;20067;-76
2023/09/18 03:15:06;;;;;;;16.65;10.65;;;;;;;22.74;81.78;100376.34;5031370;28;20033;-73
2023/09/18 03:17:32;;;;;;;18.27;11.10;;;;;;;22.71;82.36;100381.75;5031171;28;20045;-76
2023/09/18 03:19:57;;;;;;;16.67;10.60;;;;;;;22.76;82.38;100379.75;5031258;28;20160;-73
2023/09/18 03:22:23;;;;;;;18.05;10.10;;;;;;;22.78;82.12;100372.59;5030512;28;20061;-73
2023/09/18 03:24:48;;;;;;;17.73;9.80;;;;;;;22.79;82.44;100366.34;5031183;28;20502;-73
2023/09/18 03:27:13;;;;;;;15.65;9.77;;;;;;;22.84;82.00;100373.19;5031337;28;20037;-73
2023/09/18 03:29:38;;;;;;;15.25;9.20;;;;;;;22.81;82.69;100383.94;5030711;28;20029;-73
2023/09/18 03:32:04;;;;;;;15.55;10.52;;;;;;;22.87;82.60;100396.97;5031007;28;20037;-73
2023/09/18 03:34:41;;;;;;;18.25;10.40;;;;;;;22.79;83.15;100401.78;5030712;28;20029;-75
2023/09/18 03:37:06;;;;;;;16.80;10.65;;;;;;;22.76;83.34;100422.28;5030740;28;20120;-76
2023/09/18 03:39:32;;;;;;;16.60;10.18;;;;;;;22.86;83.03;100413.88;5030143;28;20179;-75
2023/09/18 03:41:57;;;;;;;19.52;10.05;;;;;;;22.72;83.72;100426.00;5030918;28;20191;-74
2023/09/18 03:44:22;;;;;;;19.00;10.68;;;;;;;22.72;84.42;100416.25;5030475;28;20030;-74
2023/09/18 03:46:54;;;;;;;18.20;10.50;;;;;;;22.68;84.64;100419.97;5031072;28;20075;-74
2023/09/18 03:49:19;;;;;;;16.83;9.90;;;;;;;22.71;84.74;100422.47;5029971;28;20053;-74
2023/09/18 03:51:44;;;;;;;14.57;9.15;;;;;;;22.78;84.68;100418.66;5030498;28;20152;-74
2023/09/18 03:54:13;;;;;;;18.90;9.50;;;;;;;22.84;84.40;100413.06;5030415;28;20029;-72
2023/09/18 03:56:38;;;;;;;13.45;8.60;;;;;;;22.72;85.78;100396.75;5030159;28;20041;-73
2023/09/18 03:59:09;;;;;;;13.57;7.70;;;;;;;22.80;85.22;100392.88;5030257;28;20321;-73
2023/09/18 04:01:40;;;;;;;12.98;6.93;;;;;;;22.80;85.95;100376.06;5029841;28;20037;-72
2023/09/18 04:04:06;;;;;;;12.13;6.70;;;;;;;22.78;86.24;100373.47;5030019;28;20602;-75
2023/09/18 04:06:50;;;;;;;9.35;4.80;;;;;;;22.79;85.74;100377.00;5029877;28;20125;-73
2023/09/18 04:09:18;;;;;;;7.95;4.82;;;;;;;22.79;86.14;100377.00;5029671;28;20079;-75
2023/09/18 04:11:43;;;;;;;8.18;4.85;;;;;;;22.71;86.53;100352.50;5029649;28;20053;-72
2023/09/18 04:14:11;;;;;;;9.18;5.60;;;;;;;22.86;85.78;100341.22;5030784;28;20553;-72
2023/09/18 04:16:46;;;;;;;12.73;5.78;;;;;;;22.77;86.11;100341.63;5029636;28;20038;-72
2023/09/18 04:19:11;;;;;;;12.88;7.07;;;;;;;22.52;88.05;100344.50;5030270;28;20051;-72
2023/09/18 04:21:36;;;;;;;13.07;6.80;;;;;;;22.57;88.15;100353.09;5029457;28;20223;-72
2023/09/18 04:24:02;;;;;;;11.98;6.47;;;;;;;22.82;86.46;100345.81;5030207;28;20038;-72
2023/09/18 04:26:30;;;;;;;12.43;6.32;;;;;;;22.88;85.82;100342.88;5029587;28;20038;-72
2023/09/18 04:29:00;;;;;;;15.70;6.80;;;;;;;22.64;87.22;100328.00;5030436;28;20479;-72
2023/09/18 04:31:25;;;;;;;11.10;6.38;;;;;;;22.83;86.60;100318.31;5029385;28;20068;-72
2023/09/18 04:33:51;;;;;;;11.15;6.28;;;;;;;22.92;85.36;100317.03;5030698;28;20446;-72
2023/09/18 04:36:16;;;;;;;14.98;6.47;;;;;;;22.74;86.68;100324.06;5030359;28;20112;-73
2023/09/18 04:38:41;;;;;;;12.00;6.00;;;;;;;22.82;85.91;100335.19;5029478;28;20033;-72
2023/09/18 04:41:14;;;;;;;12.65;6.82;;;;;;;22.61;86.81;100331.69;5030078;28;20037;-73
2023/09/18 04:43:40;;;;;;;10.43;6.23;;;;;;;22.79;86.32;100335.34;5029839;28;20143;-72
2023/09/18 04:46:08;;;;;;;10.68;6.10;;;;;;;22.79;85.90;100331.81;5030267;28;20403;-72
2023/09/18 04:48:37;;;;;;;10.73;5.80;;;;;;;22.82;85.53;100324.53;5029552;28;20379;-72
2023/09/18 04:51:05;;;;;;;10.88;6.18;;;;;;;22.76;86.31;100332.78;5030233;28;20038;-74
2023/09/18 04:53:46;;;;;;;10.35;6.40;;;;;;;22.73;86.60;100343.56;5029698;28;20033;-72
2023/09/18 04:56:11;;;;;;;13.40;7.05;;;;;;;22.58;87.77;100342.41;5029886;28;20128;-73
2023/09/18 04:58:39;;;;;;;11.35;6.80;;;;;;;22.74;87.02;100345.31;5029480;28;20116;-73
2023/09/18 05:01:08;;;;;;;16.52;6.97;;;;;;;22.63;87.11;100331.59;5029931;28;20037;-72
2023/09/18 05:03:34;;;;;;;12.40;6.55;;;;;;;22.59;87.83;100332.66;5029117;28;20120;-74
2023/09/18 05:05:59;;;;;;;12.95;6.88;;;;;;;22.73;87.11;100321.44;5029665;28;20037;-75
2023/09/18 05:08:25;;;;;;;13.25;6.93;;;;;;;22.51;88.11;100303.78;5029392;28;20040;-73
2023/09/18 05:10:53;;;;;;;12.50;6.97;;;;;;;22.67;87.45;100310.13;5029409;28;20053;-73
2023/09/18 05:13:18;;;;;;;12.32;6.75;;;;;;;22.80;86.62;100306.97;5028040;28;20033;-73
2023/09/18 05:15:46;;;;;;;15.55;7.00;;;;;;;22.80;86.05;100301.66;5029297;28;20044;-72
2023/09/18 05:18:15;;;;;;;11.85;6.82;;;;;;;22.74;86.84;100304.59;5028339;28;20037;-73
2023/09/18 05:20:40;;;;;;;14.38;7.15;;;;;;;22.57;87.48;100300.84;5032798;28;20442;-72
2023/09/18 05:23:05;;;;;;;13.63;7.13;;;;;;;22.73;87.11;100301.06;5039314;28;20167;-73
2023/09/18 05:25:32;;;;;;;13.48;7.63;;;;;;;22.71;87.26;100300.22;5033333;28;20037;-72
2023/09/18 05:27:59;;;;;;;16.63;8.20;;;;;;;22.62;88.30;100304.19;5033631;28;20033;-72
2023/09/18 05:30:33;;;;;;;15.05;7.15;;;;;;;22.73;87.63;100297.53;5033377;28;20491;-73
2023/09/18 05:33:06;;;;;;;12.68;6.80;;;;;;;22.78;87.39;100298.19;5034047;28;20443;-73
2023/09/18 05:35:36;;;;;;;13.13;6.82;;;;;;;22.85;86.75;100287.22;5033667;28;20029;-73
2023/09/18 05:38:03;;;;;;;12.50;7.03;;;;;;;22.64;87.81;100285.47;5033231;28;20032;-72
2023/09/18 05:40:29;;;;;;;13.18;6.85;;;;;;;22.73;87.15;100273.63;5032247;28;20452;-72
2023/09/18 05:42:58;;;;;;;13.07;6.60;;;;;;;22.80;86.77;100275.94;5033162;28;20052;-73
2023/09/18 05:45:23;;;;;;;12.57;7.00;;;;;;;22.75;87.12;100277.09;5032638;28;20376;-73
2023/09/18 05:47:49;;;;;;;13.82;6.70;;;;;;;22.65;87.39;100276.59;5033228;28;20037;-73
2023/09/18 05:50:16;;;;;;;14.05;6.75;;;;;;;22.73;86.85;100279.81;5033006;28;20034;-72
2023/09/18 05:52:51;;;;;;;10.75;6.18;;;;;;;22.76;86.36;100278.78;5033070;28;20349;-72
2023/09/18 05:55:16;;;;;;;12.73;6.70;;;;;;;22.75;86.95;100280.56;5033725;28;20033;-72
2023/09/18 05:57:42;;;;;;;12.60;7.07;;;;;;;22.67;87.36;100286.22;5044755;28;20037;-73
2023/09/18 06:00:08;;;;;;;14.50;7.20;;;;;;;22.76;87.02;100277.00;5048233;28;20037;-73
2023/09/18 06:02:33;;;;;;;13.13;7.30;;;;;;;22.83;86.65;100290.84;5035711;28;20288;-73
2023/09/18 06:05:00;;;;;;;15.30;7.43;;;;;;;22.81;87.04;100301.56;5033026;28;20056;-72
2023/09/18 06:07:29;;;;;;;12.80;6.82;;;;;;;22.89;86.80;100294.09;5032491;28;20041;-75
2023/09/18 06:09:58;;;;;;;12.60;6.85;;;;;;;22.85;86.52;100297.84;5031539;28;20486;-72
2023/09/18 06:12:24;;;;;;;13.63;7.20;;;;;;;22.84;86.66;100308.53;5032598;28;20202;-72
2023/09/18 06:14:53;;;;;;;15.27;8.15;;;;;;;22.78;86.71;100311.47;5034276;28;20032;-73
2023/09/18 06:17:18;;;;;;;12.85;7.20;;;;;;;22.82;86.13;100308.59;5035180;28;20037;-73
2023/09/18 06:19:45;;;;;;;18.38;8.98;;;;;;;22.80;86.92;100314.94;5034458;28;20040;-73
2023/09/18 06:22:11;;;;;;;16.85;8.80;;;;;;;22.82;86.55;100307.72;5035913;28;20033;-73
2023/09/18 06:24:36;;;;;;;18.83;9.40;;;;;;;22.75;87.17;100312.47;5033035;28;20032;-73
2023/09/18 06:27:04;;;;;;;17.27;9.52;;;;;;;22.76;87.39;100306.22;5031723;28;20029;-73
2023/09/18 06:29:33;;;;;;;20.33;10.00;;;;;;;22.75;87.10;100307.16;5031023;28;20117;-73
2023/09/18 06:31:58;;;;;;;15.80;9.68;;;;;;;22.78;87.53;100300.84;5032627;28;20036;-74
2023/09/18 06:34:25;;;;;;;16.83;9.32;;;;;;;22.79;87.29;100294.59;5030893;28;20097;-72
2023/09/18 06:36:56;;;;;;;16.45;9.30;;;;;;;22.84;87.01;100296.09;5032423;28;20494;-72
2023/09/18 06:39:23;;;;;;;18.05;9.20;;;;;;;22.91;87.38;100292.25;5031522;28;20049;-72
2023/09/18 06:41:48;;;;;;;17.23;8.65;;;;;;;22.87;87.22;100295.94;5032054;28;20533;-72
2023/09/18 06:44:14;;;;;;;15.52;8.23;;;;;;;22.91;87.24;100284.25;5032217;28;20029;-72
2023/09/18 06:46:45;;;;;;;13.35;7.28;;;;;;;22.65;88.21;100284.56;5031329;28;20069;-73
2023/09/18 06:49:10;;;;;;;12.70;7.10;;;;;;;22.79;88.02;100286.63;5032018;28;20029;-73
2023/09/18 06:51:39;;;;;;;12.40;6.78;;;;;;;22.90;87.15;100292.31;5031415;28;20128;-73
2023/09/18 06:54:05;;;;;;;11.95;6.20;;;;;;;22.88;87.04;100289.72;5032131;28;20057;-73
2023/09/18 06:56:30;;;;;;;10.93;5.32;;;;;;;22.93;86.57;100289.50;5031258;28;20064;-72
2023/09/18 06:58:58;;;;;;;9.43;4.97;;;;;;;22.95;86.46;100291.16;5031727;28;20372;-73
2023/09/18 07:01:25;;;;;;;9.10;4.72;;;;;;;22.82;87.08;100305.06;5030542;28;20037;-72
2023/09/18 07:03:54;;;;;;;8.95;4.50;;;;;;;22.74;86.84;100304.59;5031840;28;20033;-74
2023/09/18 07:06:20;;;;;;;7.90;4.40;;;;;;;22.76;86.59;100303.56;5030057;28;20446;-73
2023/09/18 07:08:47;;;;;;;6.70;4.20;;;;;;;22.94;86.42;100305.38;5031739;28;20029;-73
2023/09/18 07:11:16;;;;;;;8.82;4.03;;;;;;;22.83;86.44;100312.13;5031483;28;20092;-73
2023/09/18 07:13:45;;;;;;;6.63;3.90;;;;;;;22.63;85.28;100310.31;5031050;28;20044;-72
2023/09/18 07:16:10;;;;;;;5.95;3.50;;;;;;;22.93;86.98;100310.78;5031290;28;20060;-72
2023/09/18 07:18:36;;;;;;;6.32;3.33;;;;;;;22.76;85.81;100308.88;5030556;28;20033;-73
2023/09/18 07:21:04;;;;;;;5.72;3.40;;;;;;;23.02;85.69;100297.91;5030971;28;20080;-72
2023/09/18 07:23:29;;;;;;;5.13;2.90;;;;;;;23.19;85.14;100302.44;5030730;28;20136;-72
2023/09/18 07:25:55;;;;;;;4.65;3.00;;;;;;;23.33;84.35;100307.09;5031398;28;20556;-72
2023/09/18 07:28:20;;;;;;;4.90;2.80;;;;;;;23.38;84.11;100303.28;5031167;28;20045;-72
2023/09/18 07:30:52;;;;;;;4.05;2.42;;;;;;;23.32;82.73;100308.03;5030732;28;20044;-72
2023/09/18 07:33:20;;;;;;;4.43;2.47;;;;;;;23.23;83.25;100317.31;5031359;28;20120;-72
2023/09/18 07:35:51;;;;;;;4.97;2.45;;;;;;;23.17;82.20;100324.72;5030399;28;20116;-71
2023/09/18 07:38:20;;;;;;;4.90;2.40;;;;;;;23.04;82.05;100325.31;5031200;28;20025;-73
2023/09/18 07:40:47;;;;;;;5.22;2.35;;;;;;;23.25;81.51;100330.53;5030422;28;20033;-72
2023/09/18 07:43:12;;;;;;;4.05;2.40;;;;;;;22.97;81.56;100336.28;5030299;28;20467;-73
2023/09/18 07:45:40;;;;;;;3.88;2.22;;;;;;;23.05;81.67;100336.81;5030535;28;20064;-73
2023/09/18 07:48:07;;;;;;;6.90;2.33;;;;;;;23.16;80.99;100342.47;5031233;28;20077;-72
2023/09/18 07:50:35;;;;;;;5.50;2.38;;;;;;;22.99;81.85;100337.09;5030005;28;20037;-71
2023/09/18 07:53:04;;;;;;;4.65;2.15;;;;;;;23.30;81.24;100345.31;5030450;28;20179;-72
2023/09/18 07:55:29;;;;;;;5.60;2.10;;;;;;;23.48;81.30;100342.78;5029272;28;20124;-73
2023/09/18 07:57:55;;;;;;;3.42;2.05;;;;;;;23.33;80.10;100352.31;5030498;28;20047;-71
2023/09/18 08:00:26;;;;;;;4.13;2.10;;;;;;;23.47;80.34;100362.34;5030166;28;20029;-76
2023/09/18 08:02:56;;;;;;;3.80;2.10;;;;;;;23.42;80.97;100365.19;5029131;28;20125;-73
2023/09/18 08:05:21;;;;;;;5.53;2.05;;;;;;;23.88;79.32;100353.19;5029736;28;20124;-74
2023/09/18 08:07:51;;;;;;;2.88;1.75;;;;;;;24.02;78.73;100358.72;5030292;28;20112;-72
2023/09/18 08:10:17;;;;;;;6.00;2.10;;;;;;;24.21;77.17;100370.16;5030167;28;20048;-72
2023/09/18 08:12:46;;;;;;;2.67;1.80;;;;;;;24.18;76.70;100373.00;5030288;28;20113;-73
2023/09/18 08:15:12;;;;;;;5.32;1.70;;;;;;;24.22;76.02;100363.03;5030615;28;20087;-74
2023/09/18 08:17:43;;;;;;;5.10;1.98;;;;;;;24.01;74.74;100370.28;5029997;28;20080;-71
2023/09/18 08:20:12;;;;;;;4.88;2.00;;;;;;;23.98;75.90;100367.75;5029906;28;20512;-74
2023/09/18 08:22:42;;;;;;;6.15;2.15;;;;;;;24.18;75.84;100364.09;5029468;28;20079;-72
2023/09/18 08:25:10;;;;;;;3.72;2.13;;;;;;;24.12;73.95;100369.75;5030166;28;20136;-72
2023/09/18 08:27:43;;;;;;;3.67;2.10;;;;;;;24.12;74.36;100362.63;5029799;28;20132;-72
2023/09/18 08:30:12;;;;;;;4.90;1.85;;;;;;;24.16;74.34;100371.31;5030053;28;20065;-75
2023/09/18 08:32:39;;;;;;;3.65;2.00;;;;;;;23.99;74.56;100390.78;5029723;28;20036;-75
2023/09/18 08:35:05;;;;;;;5.75;2.00;;;;;;;24.23;74.00;100378.94;5031042;28;20034;-75
2023/09/18 08:37:33;;;;;;;4.28;2.05;;;;;;;24.55;73.14;100387.97;5029444;28;20041;-75
2023/09/18 08:40:09;;;;;;;5.57;1.90;;;;;;;24.61;72.69;100378.78;5029605;28;20037;-76
2023/09/18 08:42:36;;;;;;;3.90;2.28;;;;;;;23.85;74.42;100385.28;5028989;28;20479;-73
2023/09/18 08:45:09;;;;;;;4.75;2.28;;;;;;;23.88;73.45;100381.63;5029856;28;20037;-73
2023/09/18 08:47:35;;;;;;;6.07;2.50;;;;;;;23.66;74.09;100385.34;5029285;28;20041;-74
2023/09/18 08:50:01;;;;;;;6.18;2.60;;;;;;;23.64;74.15;100397.84;5031475;28;20029;-74
2023/09/18 08:52:27;;;;;;;5.75;2.67;;;;;;;23.45;75.96;100403.16;5031306;28;20037;-75
2023/09/18 08:54:56;;;;;;;4.15;2.30;;;;;;;23.87;74.27;100399.38;5029336;28;20029;-74
2023/09/18 08:57:27;;;;;;;4.32;2.10;;;;;;;24.34;72.92;100382.84;5028841;28;20452;-72
2023/09/18 08:59:54;;;;;;;4.80;2.33;;;;;;;24.19;72.94;100380.06;5029346;28;20036;-72
2023/09/18 09:02:25;;;;;;;5.95;2.65;;;;;;;24.18;72.09;100390.75;5029601;28;20064;-73
2023/09/18 09:04:54;;;;;;;4.95;2.53;;;;;;;23.78;72.73;100400.72;5029326;28;20538;-72
2023/09/18 09:07:19;;;;;;;4.45;2.38;;;;;;;23.93;72.21;100409.75;5029476;28;20083;-72
2023/09/18 09:09:44;;;;;;;4.70;2.40;;;;;;;23.89;73.27;100408.16;5029487;28;20034;-71
2023/09/18 09:12:13;;;;;;;4.60;2.60;;;;;;;24.16;71.83;100408.59;5028281;28;20034;-74
2023/09/18 09:14:38;;;;;;;6.60;2.60;;;;;;;23.61;72.88;100411.28;5029530;28;20128;-71
2023/09/18 09:17:04;;;;;;;8.65;2.67;;;;;;;24.18;71.35;100404.97;5030269;28;20473;-76
2023/09/18 09:19:32;;;;;;;5.65;2.70;;;;;;;24.10;71.49;100409.75;5028645;28;20037;-76
2023/09/18 09:21:59;;;;;;;4.07;2.85;;;;;;;24.25;71.05;100400.19;5029157;28;20025;-74
2023/09/18 09:24:44;;;;;;;5.32;2.70;;;;;;;24.16;70.71;100409.47;5029124;28;20462;-73
2023/09/18 09:27:10;;;;;;;5.65;3.13;;;;;;;23.89;69.99;100408.16;5029430;28;20034;-73
2023/09/18 09:29:36;;;;;;;4.75;3.00;;;;;;;24.07;69.73;100403.75;5027931;28;20045;-72
2023/09/18 09:32:24;;;;;;;5.57;2.95;;;;;;;24.37;69.56;100398.69;5029010;28;20495;-72
2023/09/18 09:34:59;;;;;;;5.72;2.80;;;;;;;24.69;67.38;100413.91;5029141;28;20091;-73
2023/09/18 09:37:34;;;;;;;4.07;2.60;;;;;;;24.92;66.96;100416.25;5028237;28;20566;-74
2023/09/18 09:40:08;;;;;;;3.35;2.70;;;;;;;24.80;65.46;100410.66;5028963;28;20040;-73
2023/09/18 09:43:00;;;;;;;6.13;3.10;;;;;;;24.21;66.85;100407.44;5028477;28;20040;-72
2023/09/18 09:45:27;;;;;;;5.20;2.85;;;;;;;24.73;66.99;100402.13;5028667;28;20543;-72
2023/09/18 09:47:54;;;;;;;6.03;2.83;;;;;;;24.62;66.38;100412.50;5029093;28;20045;-73
2023/09/18 09:50:19;;;;;;;7.18;3.22;;;;;;;24.47;65.53;100421.25;5028807;28;20041;-74
2023/09/18 09:52:52;;;;;;;7.30;3.55;;;;;;;24.50;64.66;100423.78;5028791;28;20042;-72
2023/09/18 09:55:22;;;;;;;4.65;3.08;;;;;;;24.97;65.24;100427.53;5029240;28;20499;-73
2023/09/18 09:57:54;;;;;;;3.67;3.20;;;;;;;24.62;65.12;100426.69;5028757;28;20072;-73
2023/09/18 10:00:32;;;;;;;6.25;3.22;;;;;;;24.91;65.48;100424.31;5026775;28;20030;-73
2023/09/18 10:03:03;;;;;;;4.70;3.40;;;;;;;24.61;65.62;100427.63;5028747;28;20038;-72
2023/09/18 10:05:35;;;;;;;5.25;3.60;;;;;;;24.82;64.83;100422.13;5028936;28;20037;-73
2023/09/18 10:08:23;;;;;;;6.07;3.28;;;;;;;25.00;63.57;100427.38;5032824;28;20030;-73
2023/09/18 10:10:51;;;;;;;7.65;3.70;;;;;;;24.93;63.58;100411.78;5031583;28;20053;-73
2023/09/18 10:13:20;;;;;;;6.70;4.20;;;;;;;24.86;63.96;100416.53;5032873;28;20055;-73
2023/09/18 10:15:56;;;;;;;9.13;3.60;;;;;;;25.24;63.67;100424.34;5032006;28;20076;-73
2023/09/18 10:18:28;;;;;;;5.03;3.85;;;;;;;25.08;63.01;100428.75;5031646;28;20549;-76
2023/09/18 10:21:20;;;;;;;4.97;3.70;;;;;;;25.15;63.89;100424.81;5032145;28;20509;-72
2023/09/18 10:24:07;;;;;;;5.22;3.60;;;;;;;25.03;64.24;100421.00;5032033;28;20029;-72
2023/09/18 10:26:46;;;;;;;7.40;3.78;;;;;;;25.54;62.78;100425.31;5031579;28;20041;-72
2023/09/18 10:29:19;;;;;;;6.15;4.10;;;;;;;25.12;63.10;100419.66;5032138;28;20038;-72
2023/09/18 10:31:48;;;;;;;6.80;4.07;;;;;;;25.31;61.36;100418.56;5031194;28;20448;-72
2023/09/18 10:34:17;;;;;;;6.68;4.03;;;;;;;25.15;61.81;100422.16;5032117;28;20057;-72
2023/09/18 10:36:47;;;;;;;6.88;4.25;;;;;;;24.61;62.98;100413.44;5031649;28;20060;-73
2023/09/18 10:39:13;;;;;;;6.35;3.92;;;;;;;25.23;61.38;100415.47;5031586;28;20038;-72
2023/09/18 10:41:42;;;;;;;7.32;3.95;;;;;;;25.02;60.11;100414.81;5031339;28;20041;-72
2023/09/18 10:44:20;;;;;;;5.30;3.50;;;;;;;25.32;59.83;100414.94;5032073;28;20120;-72
2023/09/18 10:47:00;;;;;;;7.88;4.00;;;;;;;25.40;60.06;100410.06;5031815;28;20044;-72
2023/09/18 10:49:25;;;;;;;6.28;4.00;;;;;;;24.88;59.95;100412.00;5031277;28;20709;-73
2023/09/18 10:51:54;;;;;;;7.50;3.70;;;;;;;25.33;58.76;100402.47;5031526;28;20033;-72
2023/09/18 10:54:25;;;;;;;4.72;3.80;;;;;;;25.35;59.75;100414.81;5032136;28;20093;-73
2023/09/18 10:56:56;;;;;;;6.65;3.80;;;;;;;25.24;59.42;100411.00;5031506;28;20069;-72
2023/09/18 10:59:21;;;;;;;5.20;3.50;;;;;;;25.57;58.73;100414.50;5031268;28;20041;-72
2023/09/18 11:01:50;;;;;;;7.93;3.45;;;;;;;25.94;57.23;100415.94;5031452;28;20037;-72
2023/09/18 11:04:19;;;;;;;9.52;3.42;;;;;;;26.10;56.21;100422.16;5031329;28;20033;-73
2023/09/18 11:06:53;;;;;;;6.28;3.38;;;;;;;25.67;56.73;100417.53;5030964;28;20034;-72
2023/09/18 11:09:27;;;;;;;7.32;3.35;;;;;;;26.17;55.69;100419.97;5031117;28;20052;-74
2023/09/18 11:12:13;;;;;;;5.65;3.30;;;;;;;26.13;55.74;100419.28;5030782;28;20041;-72
2023/09/18 11:14:49;;;;;;;5.07;3.08;;;;;;;26.06;54.87;100412.56;5030814;28;20146;-72
2023/09/18 11:17:30;;;;;;;5.90;3.10;;;;;;;26.35;55.48;100410.91;5031242;28;20038;-71
2023/09/18 11:20:23;;;;;;;6.03;2.90;;;;;;;26.35;55.48;100410.06;5031026;28;20033;-72
2023/09/18 11:23:02;;;;;;;5.80;2.97;;;;;;;26.04;54.68;100410.97;5030945;28;20109;-71
2023/09/18 11:25:45;;;;;;;6.93;2.72;;;;;;;25.64;56.26;100415.03;5030302;28;20292;-72